sensor_id;sensor_type;location;lat;lon;timestamp;P1;durP1;ratioP1;P2;durP2;ratioP2
11042;SDS011;5574;48.786;10.120;2023-02-28T00:01:39;1.90;;;1.63;;
11042;SDS011;5574;48.786;10.120;2023-02-28T00:04:06;2.37;;;1.87;;
11042;SDS011;5574;48.786;10.120;2023-02-28T00:06:34;2.00;;;1.80;;
11042;SDS011;5574;48.786;10.120;2023-02-28T00:09:00;2.10;;;2.00;;
11042;SDS011;5574;48.786;10.120;2023-02-28T00:11:29;2.57;;;1.67;;
11042;SDS011;5574;48.786;10.120;2023-02-28T00:13:55;1.90;;;1.70;;
11042;SDS011;5574;48.786;10.120;2023-02-28T00:16:22;1.80;;;1.70;;
11042;SDS011;5574;48.786;10.120;2023-02-28T00:18:49;2.40;;;2.20;;
11042;SDS011;5574;48.786;10.120;2023-02-28T00:21:16;2.23;;;1.60;;
11042;SDS011;5574;48.786;10.120;2023-02-28T00:23:44;1.80;;;1.60;;
11042;SDS011;5574;48.786;10.120;2023-02-28T00:26:11;2.30;;;1.97;;
11042;SDS011;5574;48.786;10.120;2023-02-28T00:28:39;2.00;;;1.90;;
11042;SDS011;5574;48.786;10.120;2023-02-28T00:31:06;1.90;;;1.67;;
11042;SDS011;5574;48.786;10.120;2023-02-28T00:33:32;2.20;;;1.90;;
11042;SDS011;5574;48.786;10.120;2023-02-28T00:36:03;2.83;;;2.13;;
11042;SDS011;5574;48.786;10.120;2023-02-28T00:38:30;2.60;;;2.20;;
11042;SDS011;5574;48.786;10.120;2023-02-28T00:40:57;3.30;;;2.07;;
11042;SDS011;5574;48.786;10.120;2023-02-28T00:43:29;4.03;;;2.40;;
11042;SDS011;5574;48.786;10.120;2023-02-28T00:45:57;3.03;;;2.20;;
11042;SDS011;5574;48.786;10.120;2023-02-28T00:48:24;2.50;;;2.20;;
11042;SDS011;5574;48.786;10.120;2023-02-28T00:50:51;2.10;;;1.90;;
11042;SDS011;5574;48.786;10.120;2023-02-28T00:53:18;2.67;;;2.30;;
11042;SDS011;5574;48.786;10.120;2023-02-28T00:55:45;2.43;;;2.10;;
11042;SDS011;5574;48.786;10.120;2023-02-28T00:58:12;2.30;;;2.10;;
11042;SDS011;5574;48.786;10.120;2023-02-28T01:00:39;2.60;;;2.20;;
11042;SDS011;5574;48.786;10.120;2023-02-28T01:03:07;2.30;;;2.10;;
11042;SDS011;5574;48.786;10.120;2023-02-28T01:05:33;2.33;;;2.10;;
11042;SDS011;5574;48.786;10.120;2023-02-28T01:08:00;2.53;;;2.33;;
11042;SDS011;5574;48.786;10.120;2023-02-28T01:10:27;3.37;;;2.43;;
11042;SDS011;5574;48.786;10.120;2023-02-28T01:12:56;1.50;;;1.40;;
11042;SDS011;5574;48.786;10.120;2023-02-28T01:15:23;2.37;;;2.17;;
11042;SDS011;5574;48.786;10.120;2023-02-28T01:17:49;2.50;;;2.30;;
11042;SDS011;5574;48.786;10.120;2023-02-28T01:20:17;2.43;;;2.23;;
11042;SDS011;5574;48.786;10.120;2023-02-28T01:22:44;2.47;;;2.27;;
11042;SDS011;5574;48.786;10.120;2023-02-28T01:25:11;2.40;;;2.20;;
11042;SDS011;5574;48.786;10.120;2023-02-28T01:27:38;2.30;;;2.10;;
11042;SDS011;5574;48.786;10.120;2023-02-28T01:30:05;2.27;;;1.97;;
11042;SDS011;5574;48.786;10.120;2023-02-28T01:32:33;2.40;;;2.17;;
11042;SDS011;5574;48.786;10.120;2023-02-28T01:35:00;3.00;;;2.30;;
11042;SDS011;5574;48.786;10.120;2023-02-28T01:37:28;2.53;;;2.33;;
11042;SDS011;5574;48.786;10.120;2023-02-28T01:39:55;2.50;;;2.23;;
11042;SDS011;5574;48.786;10.120;2023-02-28T01:42:21;2.40;;;2.00;;
11042;SDS011;5574;48.786;10.120;2023-02-28T01:44:59;2.50;;;2.30;;
11042;SDS011;5574;48.786;10.120;2023-02-28T01:47:29;2.50;;;2.30;;
11042;SDS011;5574;48.786;10.120;2023-02-28T01:49:58;3.23;;;2.00;;
11042;SDS011;5574;48.786;10.120;2023-02-28T01:52:29;3.17;;;2.57;;
11042;SDS011;5574;48.786;10.120;2023-02-28T01:54:58;3.10;;;2.60;;
11042;SDS011;5574;48.786;10.120;2023-02-28T01:57:27;2.67;;;2.47;;
11042;SDS011;5574;48.786;10.120;2023-02-28T02:00:03;2.60;;;2.40;;
11042;SDS011;5574;48.786;10.120;2023-02-28T02:02:34;2.67;;;2.47;;
11042;SDS011;5574;48.786;10.120;2023-02-28T02:05:03;3.97;;;2.57;;
11042;SDS011;5574;48.786;10.120;2023-02-28T02:07:33;3.23;;;2.80;;
11042;SDS011;5574;48.786;10.120;2023-02-28T02:10:04;2.97;;;2.20;;
11042;SDS011;5574;48.786;10.120;2023-02-28T02:12:41;2.77;;;2.57;;
11042;SDS011;5574;48.786;10.120;2023-02-28T02:15:20;2.80;;;2.60;;
11042;SDS011;5574;48.786;10.120;2023-02-28T02:17:52;2.50;;;2.30;;
11042;SDS011;5574;48.786;10.120;2023-02-28T02:23:48;2.10;;;1.90;;
11042;SDS011;5574;48.786;10.120;2023-02-28T02:26:50;3.03;;;2.70;;
11042;SDS011;5574;48.786;10.120;2023-02-28T02:35:15;3.60;;;3.30;;
11042;SDS011;5574;48.786;10.120;2023-02-28T02:37:48;2.07;;;1.97;;
11042;SDS011;5574;48.786;10.120;2023-02-28T02:40:19;3.07;;;2.80;;
11042;SDS011;5574;48.786;10.120;2023-02-28T02:42:49;2.57;;;2.37;;
11042;SDS011;5574;48.786;10.120;2023-02-28T02:45:22;2.80;;;2.47;;
11042;SDS011;5574;48.786;10.120;2023-02-28T02:47:52;2.13;;;1.70;;
11042;SDS011;5574;48.786;10.120;2023-02-28T02:50:23;3.00;;;2.70;;
11042;SDS011;5574;48.786;10.120;2023-02-28T02:52:56;4.43;;;2.70;;
11042;SDS011;5574;48.786;10.120;2023-02-28T02:55:26;5.50;;;2.93;;
11042;SDS011;5574;48.786;10.120;2023-02-28T02:57:54;2.63;;;2.33;;
11042;SDS011;5574;48.786;10.120;2023-02-28T03:00:25;3.10;;;2.90;;
11042;SDS011;5574;48.786;10.120;2023-02-28T03:02:56;4.57;;;2.63;;
11042;SDS011;5574;48.786;10.120;2023-02-28T03:05:25;3.13;;;2.73;;
11042;SDS011;5574;48.786;10.120;2023-02-28T03:07:54;3.10;;;2.80;;
11042;SDS011;5574;48.786;10.120;2023-02-28T03:10:31;2.87;;;2.67;;
11042;SDS011;5574;48.786;10.120;2023-02-28T03:13:10;2.93;;;2.60;;
11042;SDS011;5574;48.786;10.120;2023-02-28T03:15:47;3.30;;;3.00;;
11042;SDS011;5574;48.786;10.120;2023-02-28T03:18:24;3.73;;;3.40;;
11042;SDS011;5574;48.786;10.120;2023-02-28T03:20:59;3.27;;;2.97;;
11042;SDS011;5574;48.786;10.120;2023-02-28T03:23:35;3.07;;;2.77;;
11042;SDS011;5574;48.786;10.120;2023-02-28T03:26:11;4.63;;;3.00;;
11042;SDS011;5574;48.786;10.120;2023-02-28T03:28:43;2.60;;;2.40;;
11042;SDS011;5574;48.786;10.120;2023-02-28T03:31:18;3.03;;;2.80;;
11042;SDS011;5574;48.786;10.120;2023-02-28T03:33:49;3.57;;;3.17;;
11042;SDS011;5574;48.786;10.120;2023-02-28T03:36:23;4.47;;;2.97;;
11042;SDS011;5574;48.786;10.120;2023-02-28T03:38:54;3.17;;;2.87;;
11042;SDS011;5574;48.786;10.120;2023-02-28T03:41:27;4.47;;;3.33;;
11042;SDS011;5574;48.786;10.120;2023-02-28T03:43:59;3.87;;;3.03;;
11042;SDS011;5574;48.786;10.120;2023-02-28T03:46:30;3.07;;;2.43;;
11042;SDS011;5574;48.786;10.120;2023-02-28T03:49:03;3.33;;;3.00;;
11042;SDS011;5574;48.786;10.120;2023-02-28T03:51:38;1.90;;;1.80;;
11042;SDS011;5574;48.786;10.120;2023-02-28T03:54:08;3.60;;;3.30;;
11042;SDS011;5574;48.786;10.120;2023-02-28T03:56:38;3.40;;;3.07;;
11042;SDS011;5574;48.786;10.120;2023-02-28T03:59:10;4.23;;;2.77;;
11042;SDS011;5574;48.786;10.120;2023-02-28T04:01:41;3.03;;;2.80;;
11042;SDS011;5574;48.786;10.120;2023-02-28T04:04:10;4.13;;;3.57;;
11042;SDS011;5574;48.786;10.120;2023-02-28T04:06:40;4.13;;;3.17;;
11042;SDS011;5574;48.786;10.120;2023-02-28T04:09:08;3.40;;;3.10;;
11042;SDS011;5574;48.786;10.120;2023-02-28T04:11:36;3.10;;;2.80;;
11042;SDS011;5574;48.786;10.120;2023-02-28T04:14:04;3.00;;;2.60;;
11042;SDS011;5574;48.786;10.120;2023-02-28T04:16:33;4.93;;;3.20;;
11042;SDS011;5574;48.786;10.120;2023-02-28T04:19:00;4.87;;;3.50;;
11042;SDS011;5574;48.786;10.120;2023-02-28T04:21:28;4.47;;;3.73;;
11042;SDS011;5574;48.786;10.120;2023-02-28T04:23:56;3.83;;;3.13;;
11042;SDS011;5574;48.786;10.120;2023-02-28T04:26:25;3.77;;;3.43;;
11042;SDS011;5574;48.786;10.120;2023-02-28T04:28:54;2.70;;;2.23;;
11042;SDS011;5574;48.786;10.120;2023-02-28T04:31:21;3.77;;;3.47;;
11042;SDS011;5574;48.786;10.120;2023-02-28T04:33:47;4.00;;;3.60;;
11042;SDS011;5574;48.786;10.120;2023-02-28T04:36:14;4.07;;;3.67;;
11042;SDS011;5574;48.786;10.120;2023-02-28T04:38:42;4.70;;;3.70;;
11042;SDS011;5574;48.786;10.120;2023-02-28T04:41:11;3.73;;;3.43;;
11042;SDS011;5574;48.786;10.120;2023-02-28T04:43:38;4.10;;;3.70;;
11042;SDS011;5574;48.786;10.120;2023-02-28T04:46:05;3.73;;;3.30;;
11042;SDS011;5574;48.786;10.120;2023-02-28T04:48:35;2.93;;;2.33;;
11042;SDS011;5574;48.786;10.120;2023-02-28T04:51:03;5.17;;;3.40;;
11042;SDS011;5574;48.786;10.120;2023-02-28T04:53:31;3.70;;;3.40;;
11042;SDS011;5574;48.786;10.120;2023-02-28T04:55:58;4.43;;;3.73;;
11042;SDS011;5574;48.786;10.120;2023-02-28T04:58:27;3.97;;;3.57;;
11042;SDS011;5574;48.786;10.120;2023-02-28T05:00:55;4.57;;;4.00;;
11042;SDS011;5574;48.786;10.120;2023-02-28T05:03:27;4.00;;;3.43;;
11042;SDS011;5574;48.786;10.120;2023-02-28T05:05:54;4.67;;;3.80;;
11042;SDS011;5574;48.786;10.120;2023-02-28T05:08:21;3.80;;;3.50;;
11042;SDS011;5574;48.786;10.120;2023-02-28T05:10:47;5.17;;;3.77;;
11042;SDS011;5574;48.786;10.120;2023-02-28T05:13:14;4.73;;;3.43;;
11042;SDS011;5574;48.786;10.120;2023-02-28T05:15:42;5.13;;;3.97;;
11042;SDS011;5574;48.786;10.120;2023-02-28T05:18:09;6.27;;;3.80;;
11042;SDS011;5574;48.786;10.120;2023-02-28T05:20:35;3.80;;;3.40;;
11042;SDS011;5574;48.786;10.120;2023-02-28T05:23:02;3.90;;;3.50;;
11042;SDS011;5574;48.786;10.120;2023-02-28T05:25:29;3.90;;;2.77;;
11042;SDS011;5574;48.786;10.120;2023-02-28T05:27:56;3.97;;;3.60;;
11042;SDS011;5574;48.786;10.120;2023-02-28T05:30:22;5.20;;;4.10;;
11042;SDS011;5574;48.786;10.120;2023-02-28T05:32:51;5.20;;;3.77;;
11042;SDS011;5574;48.786;10.120;2023-02-28T05:35:17;2.50;;;2.30;;
11042;SDS011;5574;48.786;10.120;2023-02-28T05:37:44;3.60;;;2.97;;
11042;SDS011;5574;48.786;10.120;2023-02-28T05:40:11;2.20;;;1.93;;
11042;SDS011;5574;48.786;10.120;2023-02-28T05:42:38;5.67;;;4.00;;
11042;SDS011;5574;48.786;10.120;2023-02-28T05:45:05;4.97;;;3.83;;
11042;SDS011;5574;48.786;10.120;2023-02-28T05:47:33;4.60;;;4.10;;
11042;SDS011;5574;48.786;10.120;2023-02-28T05:50:03;6.30;;;4.00;;
11042;SDS011;5574;48.786;10.120;2023-02-28T05:52:30;3.87;;;3.47;;
11042;SDS011;5574;48.786;10.120;2023-02-28T05:54:57;5.00;;;4.43;;
11042;SDS011;5574;48.786;10.120;2023-02-28T05:57:24;5.03;;;4.10;;
11042;SDS011;5574;48.786;10.120;2023-02-28T05:59:51;4.83;;;3.73;;
11042;SDS011;5574;48.786;10.120;2023-02-28T06:02:17;3.87;;;2.90;;
11042;SDS011;5574;48.786;10.120;2023-02-28T06:04:44;4.27;;;3.77;;
11042;SDS011;5574;48.786;10.120;2023-02-28T06:07:12;5.07;;;4.57;;
11042;SDS011;5574;48.786;10.120;2023-02-28T06:09:40;4.87;;;4.13;;
11042;SDS011;5574;48.786;10.120;2023-02-28T06:12:06;4.80;;;3.40;;
11042;SDS011;5574;48.786;10.120;2023-02-28T06:14:34;3.77;;;3.43;;
11042;SDS011;5574;48.786;10.120;2023-02-28T06:17:02;5.67;;;4.10;;
11042;SDS011;5574;48.786;10.120;2023-02-28T06:19:29;3.30;;;3.00;;
11042;SDS011;5574;48.786;10.120;2023-02-28T06:21:56;3.50;;;3.20;;
11042;SDS011;5574;48.786;10.120;2023-02-28T06:24:26;4.90;;;4.40;;
11042;SDS011;5574;48.786;10.120;2023-02-28T06:26:53;3.33;;;3.03;;
11042;SDS011;5574;48.786;10.120;2023-02-28T06:29:20;4.27;;;3.70;;
11042;SDS011;5574;48.786;10.120;2023-02-28T06:31:47;6.97;;;3.97;;
11042;SDS011;5574;48.786;10.120;2023-02-28T06:34:14;6.77;;;3.83;;
11042;SDS011;5574;48.786;10.120;2023-02-28T06:36:41;5.60;;;4.30;;
11042;SDS011;5574;48.786;10.120;2023-02-28T06:39:08;5.93;;;4.37;;
11042;SDS011;5574;48.786;10.120;2023-02-28T06:41:36;4.87;;;4.10;;
11042;SDS011;5574;48.786;10.120;2023-02-28T06:44:04;4.37;;;3.83;;
11042;SDS011;5574;48.786;10.120;2023-02-28T06:46:32;6.47;;;4.27;;
11042;SDS011;5574;48.786;10.120;2023-02-28T06:48:58;6.03;;;3.90;;
11042;SDS011;5574;48.786;10.120;2023-02-28T06:51:25;8.13;;;4.30;;
11042;SDS011;5574;48.786;10.120;2023-02-28T06:53:52;5.30;;;4.27;;
11042;SDS011;5574;48.786;10.120;2023-02-28T06:56:19;4.00;;;3.60;;
11042;SDS011;5574;48.786;10.120;2023-02-28T06:58:48;6.40;;;4.47;;
11042;SDS011;5574;48.786;10.120;2023-02-28T07:01:18;4.90;;;3.90;;
11042;SDS011;5574;48.786;10.120;2023-02-28T07:03:45;3.80;;;3.30;;
11042;SDS011;5574;48.786;10.120;2023-02-28T07:06:17;4.37;;;3.97;;
11042;SDS011;5574;48.786;10.120;2023-02-28T07:08:44;5.20;;;4.10;;
11042;SDS011;5574;48.786;10.120;2023-02-28T07:11:11;6.23;;;4.80;;
11042;SDS011;5574;48.786;10.120;2023-02-28T07:13:37;2.90;;;2.67;;
11042;SDS011;5574;48.786;10.120;2023-02-28T07:16:07;4.13;;;3.57;;
11042;SDS011;5574;48.786;10.120;2023-02-28T07:18:37;3.97;;;3.40;;
11042;SDS011;5574;48.786;10.120;2023-02-28T07:21:04;3.33;;;2.33;;
11042;SDS011;5574;48.786;10.120;2023-02-28T07:23:33;5.47;;;4.10;;
11042;SDS011;5574;48.786;10.120;2023-02-28T07:26:00;5.80;;;4.33;;
11042;SDS011;5574;48.786;10.120;2023-02-28T07:28:27;6.37;;;4.17;;
11042;SDS011;5574;48.786;10.120;2023-02-28T07:30:54;3.10;;;2.83;;
11042;SDS011;5574;48.786;10.120;2023-02-28T07:33:22;2.50;;;1.90;;
11042;SDS011;5574;48.786;10.120;2023-02-28T07:35:49;4.73;;;4.23;;
11042;SDS011;5574;48.786;10.120;2023-02-28T07:38:16;4.30;;;2.57;;
11042;SDS011;5574;48.786;10.120;2023-02-28T07:40:43;4.03;;;3.60;;
11042;SDS011;5574;48.786;10.120;2023-02-28T07:43:09;4.07;;;3.63;;
11042;SDS011;5574;48.786;10.120;2023-02-28T07:45:36;5.03;;;4.53;;
11042;SDS011;5574;48.786;10.120;2023-02-28T07:48:03;4.93;;;4.43;;
11042;SDS011;5574;48.786;10.120;2023-02-28T07:50:31;5.23;;;4.73;;
11042;SDS011;5574;48.786;10.120;2023-02-28T07:52:59;5.30;;;4.60;;
11042;SDS011;5574;48.786;10.120;2023-02-28T07:55:26;3.67;;;3.37;;
11042;SDS011;5574;48.786;10.120;2023-02-28T07:57:53;7.73;;;5.03;;
11042;SDS011;5574;48.786;10.120;2023-02-28T08:00:19;5.30;;;4.77;;
11042;SDS011;5574;48.786;10.120;2023-02-28T08:02:47;6.63;;;5.47;;
11042;SDS011;5574;48.786;10.120;2023-02-28T08:05:13;5.37;;;4.67;;
11042;SDS011;5574;48.786;10.120;2023-02-28T08:07:41;5.53;;;4.70;;
11042;SDS011;5574;48.786;10.120;2023-02-28T08:10:09;4.90;;;3.80;;
11042;SDS011;5574;48.786;10.120;2023-02-28T08:12:36;6.70;;;5.10;;
11042;SDS011;5574;48.786;10.120;2023-02-28T08:15:03;5.10;;;4.60;;
11042;SDS011;5574;48.786;10.120;2023-02-28T08:17:30;5.87;;;4.67;;
11042;SDS011;5574;48.786;10.120;2023-02-28T08:19:57;3.53;;;3.10;;
11042;SDS011;5574;48.786;10.120;2023-02-28T08:22:23;5.90;;;4.87;;
11042;SDS011;5574;48.786;10.120;2023-02-28T08:24:51;4.83;;;4.20;;
11042;SDS011;5574;48.786;10.120;2023-02-28T08:27:18;5.20;;;4.00;;
11042;SDS011;5574;48.786;10.120;2023-02-28T08:29:45;6.27;;;4.57;;
11042;SDS011;5574;48.786;10.120;2023-02-28T08:32:11;7.53;;;4.43;;
11042;SDS011;5574;48.786;10.120;2023-02-28T08:34:38;5.60;;;5.00;;
11042;SDS011;5574;48.786;10.120;2023-02-28T08:37:06;5.47;;;4.37;;
11042;SDS011;5574;48.786;10.120;2023-02-28T08:39:33;7.40;;;5.50;;
11042;SDS011;5574;48.786;10.120;2023-02-28T08:42:01;4.10;;;3.70;;
11042;SDS011;5574;48.786;10.120;2023-02-28T08:44:29;5.00;;;4.43;;
11042;SDS011;5574;48.786;10.120;2023-02-28T08:46:55;4.73;;;3.80;;
11042;SDS011;5574;48.786;10.120;2023-02-28T08:49:22;4.73;;;4.33;;
11042;SDS011;5574;48.786;10.120;2023-02-28T08:51:49;4.53;;;3.67;;
11042;SDS011;5574;48.786;10.120;2023-02-28T08:54:15;6.70;;;4.50;;
11042;SDS011;5574;48.786;10.120;2023-02-28T08:56:44;6.30;;;4.20;;
11042;SDS011;5574;48.786;10.120;2023-02-28T08:59:12;5.13;;;3.10;;
11042;SDS011;5574;48.786;10.120;2023-02-28T09:01:39;4.20;;;3.80;;
11042;SDS011;5574;48.786;10.120;2023-02-28T09:04:08;1.53;;;1.43;;
11042;SDS011;5574;48.786;10.120;2023-02-28T09:06:36;5.73;;;5.00;;
11042;SDS011;5574;48.786;10.120;2023-02-28T09:09:03;6.03;;;4.10;;
11042;SDS011;5574;48.786;10.120;2023-02-28T09:11:32;6.07;;;3.73;;
11042;SDS011;5574;48.786;10.120;2023-02-28T09:13:59;6.73;;;4.77;;
11042;SDS011;5574;48.786;10.120;2023-02-28T09:16:30;3.93;;;3.53;;
11042;SDS011;5574;48.786;10.120;2023-02-28T09:18:57;7.03;;;4.87;;
11042;SDS011;5574;48.786;10.120;2023-02-28T09:21:24;6.03;;;5.00;;
11042;SDS011;5574;48.786;10.120;2023-02-28T09:23:51;3.33;;;2.80;;
11042;SDS011;5574;48.786;10.120;2023-02-28T09:26:19;2.87;;;2.60;;
11042;SDS011;5574;48.786;10.120;2023-02-28T09:28:48;4.07;;;3.60;;
11042;SDS011;5574;48.786;10.120;2023-02-28T09:31:16;4.67;;;3.20;;
11042;SDS011;5574;48.786;10.120;2023-02-28T09:33:48;5.83;;;5.10;;
11042;SDS011;5574;48.786;10.120;2023-02-28T09:36:15;2.27;;;1.97;;
11042;SDS011;5574;48.786;10.120;2023-02-28T09:38:42;5.60;;;5.10;;
11042;SDS011;5574;48.786;10.120;2023-02-28T09:41:11;5.30;;;4.37;;
11042;SDS011;5574;48.786;10.120;2023-02-28T09:43:40;4.43;;;3.10;;
11042;SDS011;5574;48.786;10.120;2023-02-28T09:46:12;4.93;;;4.43;;
11042;SDS011;5574;48.786;10.120;2023-02-28T09:48:48;4.03;;;3.60;;
11042;SDS011;5574;48.786;10.120;2023-02-28T09:51:23;7.33;;;4.90;;
11042;SDS011;5574;48.786;10.120;2023-02-28T09:53:56;4.77;;;2.97;;
11042;SDS011;5574;48.786;10.120;2023-02-28T09:56:24;6.80;;;5.37;;
11042;SDS011;5574;48.786;10.120;2023-02-28T09:58:55;6.30;;;4.40;;
11042;SDS011;5574;48.786;10.120;2023-02-28T10:01:24;6.00;;;5.40;;
11042;SDS011;5574;48.786;10.120;2023-02-28T10:03:58;4.53;;;4.13;;
11042;SDS011;5574;48.786;10.120;2023-02-28T10:06:31;3.97;;;3.57;;
11042;SDS011;5574;48.786;10.120;2023-02-28T10:09:04;5.13;;;4.13;;
11042;SDS011;5574;48.786;10.120;2023-02-28T10:11:38;6.23;;;4.83;;
11042;SDS011;5574;48.786;10.120;2023-02-28T10:14:10;8.80;;;5.90;;
11042;SDS011;5574;48.786;10.120;2023-02-28T10:16:41;4.83;;;4.33;;
11042;SDS011;5574;48.786;10.120;2023-02-28T10:19:13;6.20;;;4.50;;
11042;SDS011;5574;48.786;10.120;2023-02-28T10:21:46;5.10;;;4.17;;
11042;SDS011;5574;48.786;10.120;2023-02-28T10:24:19;3.30;;;2.60;;
11042;SDS011;5574;48.786;10.120;2023-02-28T10:26:49;4.30;;;3.83;;
11042;SDS011;5574;48.786;10.120;2023-02-28T10:29:18;6.07;;;4.33;;
11042;SDS011;5574;48.786;10.120;2023-02-28T10:31:45;6.80;;;5.23;;
11042;SDS011;5574;48.786;10.120;2023-02-28T10:34:13;7.13;;;5.10;;
11042;SDS011;5574;48.786;10.120;2023-02-28T10:36:40;6.20;;;5.03;;
11042;SDS011;5574;48.786;10.120;2023-02-28T10:42:05;3.70;;;3.37;;
11042;SDS011;5574;48.786;10.120;2023-02-28T10:44:45;3.23;;;2.93;;
11042;SDS011;5574;48.786;10.120;2023-02-28T10:47:13;5.57;;;3.80;;
11042;SDS011;5574;48.786;10.120;2023-02-28T10:49:47;3.27;;;2.93;;
11042;SDS011;5574;48.786;10.120;2023-02-28T10:52:32;5.87;;;4.80;;
11042;SDS011;5574;48.786;10.120;2023-02-28T10:55:13;5.70;;;4.70;;
11042;SDS011;5574;48.786;10.120;2023-02-28T10:57:42;4.47;;;4.03;;
11042;SDS011;5574;48.786;10.120;2023-02-28T11:00:12;3.33;;;2.03;;
11042;SDS011;5574;48.786;10.120;2023-02-28T11:02:41;5.87;;;3.53;;
11042;SDS011;5574;48.786;10.120;2023-02-28T11:05:24;5.87;;;5.27;;
11042;SDS011;5574;48.786;10.120;2023-02-28T11:07:52;5.87;;;4.70;;
11042;SDS011;5574;48.786;10.120;2023-02-28T11:10:20;5.27;;;4.17;;
11042;SDS011;5574;48.786;10.120;2023-02-28T11:12:50;5.63;;;5.10;;
11042;SDS011;5574;48.786;10.120;2023-02-28T11:15:22;5.73;;;5.13;;
11042;SDS011;5574;48.786;10.120;2023-02-28T11:17:54;5.17;;;3.80;;
11042;SDS011;5574;48.786;10.120;2023-02-28T11:20:25;3.10;;;2.80;;
11042;SDS011;5574;48.786;10.120;2023-02-28T11:22:54;5.73;;;5.03;;
11042;SDS011;5574;48.786;10.120;2023-02-28T11:25:23;5.47;;;4.63;;
11042;SDS011;5574;48.786;10.120;2023-02-28T11:27:53;5.17;;;4.67;;
11042;SDS011;5574;48.786;10.120;2023-02-28T11:30:23;6.30;;;5.63;;
11042;SDS011;5574;48.786;10.120;2023-02-28T11:32:51;5.67;;;5.07;;
11042;SDS011;5574;48.786;10.120;2023-02-28T11:35:21;6.13;;;5.43;;
11042;SDS011;5574;48.786;10.120;2023-02-28T11:37:53;7.53;;;5.57;;
11042;SDS011;5574;48.786;10.120;2023-02-28T11:40:22;3.77;;;2.50;;
11042;SDS011;5574;48.786;10.120;2023-02-28T11:42:57;5.87;;;4.90;;
11042;SDS011;5574;48.786;10.120;2023-02-28T11:45:38;6.30;;;4.90;;
11042;SDS011;5574;48.786;10.120;2023-02-28T11:48:11;6.87;;;5.43;;
11042;SDS011;5574;48.786;10.120;2023-02-28T11:50:49;7.07;;;4.90;;
11042;SDS011;5574;48.786;10.120;2023-02-28T11:53:28;6.33;;;4.20;;
11042;SDS011;5574;48.786;10.120;2023-02-28T11:56:06;4.00;;;3.63;;
11042;SDS011;5574;48.786;10.120;2023-02-28T11:58:42;4.00;;;3.43;;
11042;SDS011;5574;48.786;10.120;2023-02-28T12:01:19;7.10;;;4.40;;
11042;SDS011;5574;48.786;10.120;2023-02-28T12:03:59;4.87;;;4.17;;
11042;SDS011;5574;48.786;10.120;2023-02-28T12:06:40;5.17;;;4.50;;
11042;SDS011;5574;48.786;10.120;2023-02-28T12:09:20;4.07;;;3.60;;
11042;SDS011;5574;48.786;10.120;2023-02-28T12:11:59;4.40;;;2.40;;
11042;SDS011;5574;48.786;10.120;2023-02-28T12:14:46;5.20;;;4.17;;
11042;SDS011;5574;48.786;10.120;2023-02-28T12:17:27;3.20;;;2.70;;
11042;SDS011;5574;48.786;10.120;2023-02-28T12:20:05;5.20;;;4.00;;
11042;SDS011;5574;48.786;10.120;2023-02-28T12:22:45;5.30;;;4.73;;
11042;SDS011;5574;48.786;10.120;2023-02-28T12:25:22;6.47;;;5.57;;
11042;SDS011;5574;48.786;10.120;2023-02-28T12:28:06;5.83;;;4.13;;
11042;SDS011;5574;48.786;10.120;2023-02-28T12:30:37;5.03;;;4.53;;
11042;SDS011;5574;48.786;10.120;2023-02-28T12:33:12;3.73;;;3.13;;
11042;SDS011;5574;48.786;10.120;2023-02-28T12:35:44;4.60;;;2.40;;
11042;SDS011;5574;48.786;10.120;2023-02-28T12:38:17;3.83;;;3.43;;
11042;SDS011;5574;48.786;10.120;2023-02-28T12:40:47;5.20;;;4.70;;
11042;SDS011;5574;48.786;10.120;2023-02-28T12:43:19;3.07;;;2.83;;
11042;SDS011;5574;48.786;10.120;2023-02-28T12:45:49;4.20;;;3.00;;
11042;SDS011;5574;48.786;10.120;2023-02-28T12:48:20;6.07;;;4.00;;
11042;SDS011;5574;48.786;10.120;2023-02-28T12:50:51;6.90;;;5.80;;
11042;SDS011;5574;48.786;10.120;2023-02-28T12:53:21;3.53;;;3.23;;
11042;SDS011;5574;48.786;10.120;2023-02-28T12:55:56;6.37;;;5.17;;
11042;SDS011;5574;48.786;10.120;2023-02-28T12:58:33;4.20;;;3.23;;
11042;SDS011;5574;48.786;10.120;2023-02-28T13:01:08;5.30;;;4.80;;
11042;SDS011;5574;48.786;10.120;2023-02-28T13:06:59;5.10;;;4.50;;
11042;SDS011;5574;48.786;10.120;2023-02-28T13:09:40;6.10;;;5.50;;
11042;SDS011;5574;48.786;10.120;2023-02-28T13:12:12;6.10;;;5.50;;
11042;SDS011;5574;48.786;10.120;2023-02-28T13:14:40;4.27;;;3.73;;
11042;SDS011;5574;48.786;10.120;2023-02-28T13:17:10;5.57;;;4.57;;
11042;SDS011;5574;48.786;10.120;2023-02-28T13:19:39;6.20;;;5.60;;
11042;SDS011;5574;48.786;10.120;2023-02-28T13:22:16;6.60;;;5.37;;
11042;SDS011;5574;48.786;10.120;2023-02-28T13:24:47;4.43;;;2.80;;
11042;SDS011;5574;48.786;10.120;2023-02-28T13:33:17;5.70;;;4.27;;
11042;SDS011;5574;48.786;10.120;2023-02-28T13:35:50;5.33;;;4.63;;
11042;SDS011;5574;48.786;10.120;2023-02-28T13:38:40;4.80;;;4.27;;
11042;SDS011;5574;48.786;10.120;2023-02-28T13:44:11;7.57;;;4.20;;
11042;SDS011;5574;48.786;10.120;2023-02-28T13:49:46;8.67;;;5.37;;
11042;SDS011;5574;48.786;10.120;2023-02-28T13:52:14;7.53;;;4.20;;
11042;SDS011;5574;48.786;10.120;2023-02-28T13:54:56;6.77;;;5.27;;
11042;SDS011;5574;48.786;10.120;2023-02-28T13:57:44;8.17;;;5.37;;
11042;SDS011;5574;48.786;10.120;2023-02-28T14:00:35;6.67;;;5.20;;
11042;SDS011;5574;48.786;10.120;2023-02-28T14:03:19;4.83;;;3.93;;
11042;SDS011;5574;48.786;10.120;2023-02-28T14:06:16;5.67;;;4.80;;
11042;SDS011;5574;48.786;10.120;2023-02-28T14:08:50;6.30;;;5.53;;
11042;SDS011;5574;48.786;10.120;2023-02-28T14:11:25;4.00;;;3.60;;
11042;SDS011;5574;48.786;10.120;2023-02-28T14:13:56;6.47;;;5.03;;
11042;SDS011;5574;48.786;10.120;2023-02-28T14:16:23;7.17;;;6.47;;
11042;SDS011;5574;48.786;10.120;2023-02-28T14:18:55;5.80;;;5.23;;
11042;SDS011;5574;48.786;10.120;2023-02-28T14:21:25;6.57;;;5.97;;
11042;SDS011;5574;48.786;10.120;2023-02-28T14:24:15;8.50;;;6.40;;
11042;SDS011;5574;48.786;10.120;2023-02-28T14:27:03;6.33;;;5.73;;
11042;SDS011;5574;48.786;10.120;2023-02-28T14:32:34;5.10;;;4.60;;
11042;SDS011;5574;48.786;10.120;2023-02-28T14:35:12;5.07;;;4.03;;
11042;SDS011;5574;48.786;10.120;2023-02-28T14:37:46;8.03;;;6.17;;
11042;SDS011;5574;48.786;10.120;2023-02-28T14:40:15;9.93;;;5.07;;
11042;SDS011;5574;48.786;10.120;2023-02-28T14:42:54;8.50;;;6.43;;
11042;SDS011;5574;48.786;10.120;2023-02-28T14:45:23;5.90;;;4.90;;
11042;SDS011;5574;48.786;10.120;2023-02-28T14:47:50;6.90;;;6.30;;
11042;SDS011;5574;48.786;10.120;2023-02-28T14:50:18;6.67;;;5.87;;
11042;SDS011;5574;48.786;10.120;2023-02-28T14:52:46;6.63;;;5.97;;
11042;SDS011;5574;48.786;10.120;2023-02-28T14:55:14;6.40;;;5.80;;
11042;SDS011;5574;48.786;10.120;2023-02-28T14:57:50;6.90;;;5.30;;
11042;SDS011;5574;48.786;10.120;2023-02-28T15:00:21;6.07;;;5.43;;
11042;SDS011;5574;48.786;10.120;2023-02-28T15:02:52;6.60;;;6.00;;
11042;SDS011;5574;48.786;10.120;2023-02-28T15:05:22;7.50;;;6.50;;
11042;SDS011;5574;48.786;10.120;2023-02-28T15:08:00;7.73;;;6.07;;
11042;SDS011;5574;48.786;10.120;2023-02-28T15:10:30;6.97;;;5.50;;
11042;SDS011;5574;48.786;10.120;2023-02-28T15:12:57;6.17;;;5.57;;
11042;SDS011;5574;48.786;10.120;2023-02-28T15:15:29;6.57;;;5.90;;
11042;SDS011;5574;48.786;10.120;2023-02-28T15:18:06;8.33;;;6.23;;
11042;SDS011;5574;48.786;10.120;2023-02-28T15:20:38;7.33;;;5.20;;
11042;SDS011;5574;48.786;10.120;2023-02-28T15:23:07;7.57;;;6.50;;
11042;SDS011;5574;48.786;10.120;2023-02-28T15:25:34;6.73;;;5.63;;
11042;SDS011;5574;48.786;10.120;2023-02-28T15:28:01;5.37;;;4.73;;
11042;SDS011;5574;48.786;10.120;2023-02-28T15:30:30;6.40;;;5.77;;
11042;SDS011;5574;48.786;10.120;2023-02-28T15:33:05;6.63;;;6.00;;
11042;SDS011;5574;48.786;10.120;2023-02-28T15:35:43;6.67;;;6.07;;
11042;SDS011;5574;48.786;10.120;2023-02-28T15:38:14;6.90;;;6.20;;